sensor_id;sensor_type;location;lat;lon;timestamp;pressure;altitude;pressure_sealevel;temperature;humidity
56944;BME280;42848;42.524;12.052;2023-04-24T00:00:16;96257.50;;;13.20;100.00
56944;BME280;42848;42.524;12.052;2023-04-24T00:02:43;96259.97;;;13.25;100.00
56944;BME280;42848;42.524;12.052;2023-04-24T00:05:14;96253.28;;;13.23;100.00
56944;BME280;42848;42.524;12.052;2023-04-24T00:07:41;96243.22;;;13.11;100.00
56944;BME280;42848;42.524;12.052;2023-04-24T00:10:08;96241.84;;;13.17;100.00
56944;BME280;42848;42.524;12.052;2023-04-24T00:12:33;96244.72;;;13.36;100.00
56944;BME280;42848;42.524;12.052;2023-04-24T00:14:59;96240.66;;;13.30;100.00
56944;BME280;42848;42.524;12.052;2023-04-24T00:17:26;96231.13;;;13.24;100.00
56944;BME280;42848;42.524;12.052;2023-04-24T00:19:52;96229.53;;;13.23;100.00
56944;BME280;42848;42.524;12.052;2023-04-24T00:22:27;96233.88;;;13.12;100.00
56944;BME280;42848;42.524;12.052;2023-04-24T00:24:54;96220.25;;;13.12;100.00
56944;BME280;42848;42.524;12.052;2023-04-24T00:27:20;96231.41;;;13.19;100.00
56944;BME280;42848;42.524;12.052;2023-04-24T00:29:46;96237.97;;;13.18;100.00
56944;BME280;42848;42.524;12.052;2023-04-24T00:32:11;96230.03;;;13.13;100.00
56944;BME280;42848;42.524;12.052;2023-04-24T00:34:37;96220.69;;;13.14;100.00
56944;BME280;42848;42.524;12.052;2023-04-24T00:37:03;96212.00;;;13.08;100.00
56944;BME280;42848;42.524;12.052;2023-04-24T00:39:29;96217.50;;;13.24;100.00
56944;BME280;42848;42.524;12.052;2023-04-24T00:41:55;96221.41;;;13.11;100.00
56944;BME280;42848;42.524;12.052;2023-04-24T00:44:22;96218.75;;;12.99;100.00
56944;BME280;42848;42.524;12.052;2023-04-24T00:46:49;96228.88;;;13.26;100.00
56944;BME280;42848;42.524;12.052;2023-04-24T00:49:22;96225.38;;;13.14;100.00
56944;BME280;42848;42.524;12.052;2023-04-24T00:51:48;96217.06;;;13.22;100.00
56944;BME280;42848;42.524;12.052;2023-04-24T00:54:15;96211.38;;;13.15;100.00
56944;BME280;42848;42.524;12.052;2023-04-24T00:56:42;96215.75;;;13.04;100.00
56944;BME280;42848;42.524;12.052;2023-04-24T00:59:08;96215.25;;;13.14;100.00
56944;BME280;42848;42.524;12.052;2023-04-24T01:01:34;96199.25;;;13.13;100.00
56944;BME280;42848;42.524;12.052;2023-04-24T01:04:00;96201.00;;;13.05;100.00
56944;BME280;42848;42.524;12.052;2023-04-24T01:06:28;96191.38;;;13.23;100.00
56944;BME280;42848;42.524;12.052;2023-04-24T01:08:57;96196.63;;;13.16;100.00
56944;BME280;42848;42.524;12.052;2023-04-24T01:11:25;96193.44;;;13.14;100.00
56944;BME280;42848;42.524;12.052;2023-04-24T01:13:51;96190.72;;;13.14;100.00
56944;BME280;42848;42.524;12.052;2023-04-24T01:16:18;96191.69;;;13.06;100.00
56944;BME280;42848;42.524;12.052;2023-04-24T01:18:46;96182.66;;;13.18;100.00
56944;BME280;42848;42.524;12.052;2023-04-24T01:21:15;96175.69;;;13.04;100.00
56944;BME280;42848;42.524;12.052;2023-04-24T01:23:44;96180.47;;;13.23;100.00
56944;BME280;42848;42.524;12.052;2023-04-24T01:26:11;96170.84;;;13.14;100.00
56944;BME280;42848;42.524;12.052;2023-04-24T01:28:38;96173.16;;;13.12;100.00
56944;BME280;42848;42.524;12.052;2023-04-24T01:31:03;96158.47;;;13.16;100.00
56944;BME280;42848;42.524;12.052;2023-04-24T01:33:29;96153.28;;;13.11;100.00
56944;BME280;42848;42.524;12.052;2023-04-24T01:35:55;96148.75;;;13.47;100.00
56944;BME280;42848;42.524;12.052;2023-04-24T01:38:21;96142.44;;;13.27;100.00
56944;BME280;42848;42.524;12.052;2023-04-24T01:40:47;96139.59;;;13.23;100.00
56944;BME280;42848;42.524;12.052;2023-04-24T01:43:13;96127.66;;;13.28;100.00
56944;BME280;42848;42.524;12.052;2023-04-24T01:45:38;96129.75;;;13.19;100.00
56944;BME280;42848;42.524;12.052;2023-04-24T01:48:04;96119.00;;;13.10;100.00
56944;BME280;42848;42.524;12.052;2023-04-24T01:50:30;96114.41;;;13.14;100.00
56944;BME280;42848;42.524;12.052;2023-04-24T01:52:56;96105.38;;;13.10;100.00
56944;BME280;42848;42.524;12.052;2023-04-24T01:55:22;96110.06;;;13.25;100.00
56944;BME280;42848;42.524;12.052;2023-04-24T01:57:48;96108.53;;;13.12;100.00
56944;BME280;42848;42.524;12.052;2023-04-24T02:00:15;96112.06;;;13.13;100.00
56944;BME280;42848;42.524;12.052;2023-04-24T02:02:41;96112.50;;;13.15;100.00
56944;BME280;42848;42.524;12.052;2023-04-24T02:05:08;96123.22;;;13.07;100.00
56944;BME280;42848;42.524;12.052;2023-04-24T02:07:35;96125.97;;;13.23;100.00
56944;BME280;42848;42.524;12.052;2023-04-24T02:10:00;96139.59;;;13.23;100.00
56944;BME280;42848;42.524;12.052;2023-04-24T02:12:26;96136.19;;;13.26;100.00
56944;BME280;42848;42.524;12.052;2023-04-24T02:14:52;96127.56;;;13.24;100.00
56944;BME280;42848;42.524;12.052;2023-04-24T02:17:18;96133.63;;;13.49;100.00
56944;BME280;42848;42.524;12.052;2023-04-24T02:19:44;96136.44;;;13.21;100.00
56944;BME280;42848;42.524;12.052;2023-04-24T02:22:11;96133.47;;;13.26;100.00
56944;BME280;42848;42.524;12.052;2023-04-24T02:24:37;96128.94;;;13.18;100.00
56944;BME280;42848;42.524;12.052;2023-04-24T02:27:03;96139.47;;;13.04;100.00
56944;BME280;42848;42.524;12.052;2023-04-24T02:29:29;96131.03;;;13.09;100.00
56944;BME280;42848;42.524;12.052;2023-04-24T02:31:54;96124.88;;;13.12;100.00
56944;BME280;42848;42.524;12.052;2023-04-24T02:34:20;96124.19;;;13.15;100.00
56944;BME280;42848;42.524;12.052;2023-04-24T02:36:46;96123.03;;;13.16;100.00
56944;BME280;42848;42.524;12.052;2023-04-24T02:39:11;96124.88;;;13.12;100.00
56944;BME280;42848;42.524;12.052;2023-04-24T02:41:38;96103.97;;;13.16;100.00
56944;BME280;42848;42.524;12.052;2023-04-24T02:44:04;96099.94;;;13.10;100.00
56944;BME280;42848;42.524;12.052;2023-04-24T02:46:30;96096.50;;;13.13;100.00
56944;BME280;42848;42.524;12.052;2023-04-24T02:48:55;96087.16;;;13.14;100.00
56944;BME280;42848;42.524;12.052;2023-04-24T02:51:21;96084.09;;;13.00;100.00
56944;BME280;42848;42.524;12.052;2023-04-24T02:53:46;96081.56;;;13.23;100.00
56944;BME280;42848;42.524;12.052;2023-04-24T02:56:12;96090.97;;;13.25;100.00
56944;BME280;42848;42.524;12.052;2023-04-24T02:58:39;96083.88;;;13.21;100.00
56944;BME280;42848;42.524;12.052;2023-04-24T03:01:04;96078.31;;;13.17;100.00
56944;BME280;42848;42.524;12.052;2023-04-24T03:03:30;96078.50;;;13.24;100.00
56944;BME280;42848;42.524;12.052;2023-04-24T03:05:56;96082.38;;;13.23;100.00
56944;BME280;42848;42.524;12.052;2023-04-24T03:08:22;96095.34;;;13.14;100.00
56944;BME280;42848;42.524;12.052;2023-04-24T03:10:48;96091.16;;;13.17;100.00
56944;BME280;42848;42.524;12.052;2023-04-24T03:13:15;96087.81;;;13.23;100.00
56944;BME280;42848;42.524;12.052;2023-04-24T03:15:41;96086.59;;;13.21;100.00
56944;BME280;42848;42.524;12.052;2023-04-24T03:18:07;96079.63;;;13.39;100.00
56944;BME280;42848;42.524;12.052;2023-04-24T03:20:33;96080.44;;;13.40;100.00
56944;BME280;42848;42.524;12.052;2023-04-24T03:22:58;96081.94;;;13.37;100.00
56944;BME280;42848;42.524;12.052;2023-04-24T03:25:24;96070.66;;;13.38;100.00
56944;BME280;42848;42.524;12.052;2023-04-24T03:27:51;96076.84;;;13.35;100.00
56944;BME280;42848;42.524;12.052;2023-04-24T03:30:16;96065.66;;;13.25;100.00
56944;BME280;42848;42.524;12.052;2023-04-24T03:32:42;96063.34;;;13.11;100.00
56944;BME280;42848;42.524;12.052;2023-04-24T03:35:08;96073.56;;;13.46;100.00
56944;BME280;42848;42.524;12.052;2023-04-24T03:37:34;96080.59;;;13.47;100.00
56944;BME280;42848;42.524;12.052;2023-04-24T03:40:00;96080.66;;;13.66;100.00
56944;BME280;42848;42.524;12.052;2023-04-24T03:42:26;96082.72;;;13.37;100.00
56944;BME280;42848;42.524;12.052;2023-04-24T03:44:52;96086.22;;;13.54;100.00
56944;BME280;42848;42.524;12.052;2023-04-24T03:47:17;96085.16;;;13.43;100.00
56944;BME280;42848;42.524;12.052;2023-04-24T03:49:43;96088.13;;;13.69;100.00
56944;BME280;42848;42.524;12.052;2023-04-24T03:52:08;96091.28;;;13.71;100.00
56944;BME280;42848;42.524;12.052;2023-04-24T03:54:34;96097.88;;;13.70;100.00
56944;BME280;42848;42.524;12.052;2023-04-24T03:57:00;96093.56;;;13.69;100.00
56944;BME280;42848;42.524;12.052;2023-04-24T03:59:27;96096.41;;;13.57;100.00
56944;BME280;42848;42.524;12.052;2023-04-24T04:01:52;96086.22;;;13.54;100.00
56944;BME280;42848;42.524;12.052;2023-04-24T04:04:19;96101.44;;;13.23;100.00
56944;BME280;42848;42.524;12.052;2023-04-24T04:06:44;96098.97;;;13.34;100.00
56944;BME280;42848;42.524;12.052;2023-04-24T04:09:12;96081.69;;;13.26;100.00
56944;BME280;42848;42.524;12.052;2023-04-24T04:11:37;96082.00;;;13.09;100.00
56944;BME280;42848;42.524;12.052;2023-04-24T04:14:03;96094.22;;;13.47;100.00
56944;BME280;42848;42.524;12.052;2023-04-24T04:16:30;96088.66;;;13.59;100.00
56944;BME280;42848;42.524;12.052;2023-04-24T04:18:56;96088.13;;;13.69;100.00
56944;BME280;42848;42.524;12.052;2023-04-24T04:21:22;96095.19;;;13.89;100.00
56944;BME280;42848;42.524;12.052;2023-04-24T04:23:47;96090.66;;;13.78;100.00
56944;BME280;42848;42.524;12.052;2023-04-24T04:26:14;96094.47;;;13.73;100.00
56944;BME280;42848;42.524;12.052;2023-04-24T04:28:39;96092.41;;;13.70;100.00
56944;BME280;42848;42.524;12.052;2023-04-24T04:31:05;96086.53;;;13.68;100.00
56944;BME280;42848;42.524;12.052;2023-04-24T04:33:33;96093.56;;;13.69;100.00
56944;BME280;42848;42.524;12.052;2023-04-24T04:35:59;96082.97;;;13.17;100.00
56944;BME280;42848;42.524;12.052;2023-04-24T04:38:25;96084.47;;;13.46;100.00
56944;BME280;42848;42.524;12.052;2023-04-24T04:40:55;96082.50;;;13.62;100.00
56944;BME280;42848;42.524;12.052;2023-04-24T04:43:24;96082.81;;;13.76;100.00
56944;BME280;42848;42.524;12.052;2023-04-24T04:45:51;96075.94;;;13.47;100.00
56944;BME280;42848;42.524;12.052;2023-04-24T04:48:17;96080.34;;;13.36;100.00
56944;BME280;42848;42.524;12.052;2023-04-24T04:50:44;96076.94;;;13.74;100.00
56944;BME280;42848;42.524;12.052;2023-04-24T04:53:10;96083.84;;;13.87;100.00
56944;BME280;42848;42.524;12.052;2023-04-24T04:55:36;96085.28;;;13.81;100.00
56944;BME280;42848;42.524;12.052;2023-04-24T04:58:02;96075.16;;;13.82;100.00
56944;BME280;42848;42.524;12.052;2023-04-24T05:00:28;96082.38;;;13.90;100.00
56944;BME280;42848;42.524;12.052;2023-04-24T05:02:59;96070.44;;;13.98;100.00
56944;BME280;42848;42.524;12.052;2023-04-24T05:05:24;96085.56;;;13.76;100.00
56944;BME280;42848;42.524;12.052;2023-04-24T05:07:50;96087.72;;;13.86;100.00
56944;BME280;42848;42.524;12.052;2023-04-24T05:10:16;96081.97;;;13.72;100.00
56944;BME280;42848;42.524;12.052;2023-04-24T05:12:41;96089.31;;;13.87;100.00
56944;BME280;42848;42.524;12.052;2023-04-24T05:15:07;96096.06;;;13.93;100.00
56944;BME280;42848;42.524;12.052;2023-04-24T05:17:33;96089.91;;;13.97;100.00
56944;BME280;42848;42.524;12.052;2023-04-24T05:19:59;96085.59;;;13.95;100.00
56944;BME280;42848;42.524;12.052;2023-04-24T05:22:24;96082.50;;;13.97;100.00
56944;BME280;42848;42.524;12.052;2023-04-24T05:24:50;96074.50;;;13.88;100.00
56944;BME280;42848;42.524;12.052;2023-04-24T05:27:16;96069.63;;;13.78;100.00
56944;BME280;42848;42.524;12.052;2023-04-24T05:29:41;96066.84;;;13.59;100.00
56944;BME280;42848;42.524;12.052;2023-04-24T05:32:07;96071.09;;;13.41;100.00
56944;BME280;42848;42.524;12.052;2023-04-24T05:34:33;96057.03;;;13.38;100.00
56944;BME280;42848;42.524;12.052;2023-04-24T05:36:58;96044.56;;;13.37;100.00
56944;BME280;42848;42.524;12.052;2023-04-24T05:39:24;96059.41;;;13.24;100.00
56944;BME280;42848;42.524;12.052;2023-04-24T05:41:52;96074.78;;;13.32;100.00
56944;BME280;42848;42.524;12.052;2023-04-24T05:44:18;96067.94;;;13.38;100.00
56944;BME280;42848;42.524;12.052;2023-04-24T05:46:44;96015.16;;;13.15;100.00
56944;BME280;42848;42.524;12.052;2023-04-24T05:49:10;96010.69;;;13.07;100.00
56944;BME280;42848;42.524;12.052;2023-04-24T05:51:36;95990.16;;;12.94;100.00
56944;BME280;42848;42.524;12.052;2023-04-24T05:54:01;95999.66;;;13.00;100.00
56944;BME280;42848;42.524;12.052;2023-04-24T05:56:28;96013.41;;;13.07;100.00
56944;BME280;42848;42.524;12.052;2023-04-24T05:58:55;96022.91;;;13.13;100.00
56944;BME280;42848;42.524;12.052;2023-04-24T06:01:20;96001.13;;;13.13;100.00
56944;BME280;42848;42.524;12.052;2023-04-24T06:03:46;96020.28;;;13.17;100.00
56944;BME280;42848;42.524;12.052;2023-04-24T06:06:12;96043.66;;;13.33;100.00
56944;BME280;42848;42.524;12.052;2023-04-24T06:08:38;96054.13;;;13.47;100.00
56944;BME280;42848;42.524;12.052;2023-04-24T06:11:03;96059.97;;;13.65;100.00
56944;BME280;42848;42.524;12.052;2023-04-24T06:13:29;96051.88;;;13.69;100.00
56944;BME280;42848;42.524;12.052;2023-04-24T06:15:55;96061.72;;;13.73;100.00
56944;BME280;42848;42.524;12.052;2023-04-24T06:18:20;96061.63;;;13.70;100.00
56944;BME280;42848;42.524;12.052;2023-04-24T06:20:46;96062.16;;;13.75;100.00
56944;BME280;42848;42.524;12.052;2023-04-24T06:23:12;96050.94;;;13.80;100.00
56944;BME280;42848;42.524;12.052;2023-04-24T06:25:38;96062.19;;;13.94;100.00
56944;BME280;42848;42.524;12.052;2023-04-24T06:28:04;96063.25;;;13.55;100.00
56944;BME280;42848;42.524;12.052;2023-04-24T06:30:30;96062.19;;;13.94;100.00
56944;BME280;42848;42.524;12.052;2023-04-24T06:32:56;96063.97;;;13.87;100.00
56944;BME280;42848;42.524;12.052;2023-04-24T06:35:22;96078.38;;;13.87;100.00
56944;BME280;42848;42.524;12.052;2023-04-24T06:37:48;96067.47;;;13.87;100.00
56944;BME280;42848;42.524;12.052;2023-04-24T06:40:13;96073.22;;;13.82;100.00
56944;BME280;42848;42.524;12.052;2023-04-24T06:42:39;96063.72;;;13.76;100.00
56944;BME280;42848;42.524;12.052;2023-04-24T06:45:05;96070.28;;;13.56;100.00
56944;BME280;42848;42.524;12.052;2023-04-24T06:47:31;96070.50;;;13.82;100.00
56944;BME280;42848;42.524;12.052;2023-04-24T06:49:57;96060.75;;;13.81;100.00
56944;BME280;42848;42.524;12.052;2023-04-24T06:52:23;96061.41;;;14.13;100.00
56944;BME280;42848;42.524;12.052;2023-04-24T06:54:48;96065.19;;;13.89;100.00
56944;BME280;42848;42.524;12.052;2023-04-24T06:57:14;96068.06;;;13.97;100.00
56944;BME280;42848;42.524;12.052;2023-04-24T06:59:42;96070.88;;;13.65;100.00
56944;BME280;42848;42.524;12.052;2023-04-24T07:02:07;96072.16;;;13.87;100.00
56944;BME280;42848;42.524;12.052;2023-04-24T07:04:33;96056.97;;;13.70;100.00
56944;BME280;42848;42.524;12.052;2023-04-24T07:06:59;96067.69;;;13.98;100.00
56944;BME280;42848;42.524;12.052;2023-04-24T07:09:26;96071.44;;;13.90;100.00
56944;BME280;42848;42.524;12.052;2023-04-24T07:11:52;96074.84;;;13.52;100.00
56944;BME280;42848;42.524;12.052;2023-04-24T07:14:19;96076.59;;;13.60;100.00
56944;BME280;42848;42.524;12.052;2023-04-24T07:16:46;96077.09;;;13.81;100.00
56944;BME280;42848;42.524;12.052;2023-04-24T07:19:12;96074.91;;;13.71;100.00
56944;BME280;42848;42.524;12.052;2023-04-24T07:21:39;96078.00;;;13.70;100.00
56944;BME280;42848;42.524;12.052;2023-04-24T07:24:04;96080.09;;;13.76;100.00
56944;BME280;42848;42.524;12.052;2023-04-24T07:26:31;96073.63;;;14.00;100.00
56944;BME280;42848;42.524;12.052;2023-04-24T07:28:56;96069.50;;;13.90;100.00
56944;BME280;42848;42.524;12.052;2023-04-24T07:31:22;96065.91;;;14.25;100.00
56944;BME280;42848;42.524;12.052;2023-04-24T07:33:48;96068.28;;;14.07;100.00
56944;BME280;42848;42.524;12.052;2023-04-24T07:36:14;96059.56;;;14.17;100.00
56944;BME280;42848;42.524;12.052;2023-04-24T07:38:46;96058.44;;;14.41;100.00
56944;BME280;42848;42.524;12.052;2023-04-24T07:41:13;96061.41;;;14.52;100.00
56944;BME280;42848;42.524;12.052;2023-04-24T07:43:39;96051.41;;;14.40;100.00
56944;BME280;42848;42.524;12.052;2023-04-24T07:46:06;96051.63;;;14.51;100.00
56944;BME280;42848;42.524;12.052;2023-04-24T07:48:32;96050.41;;;14.29;100.00
56944;BME280;42848;42.524;12.052;2023-04-24T07:50:57;96052.00;;;14.30;100.00
56944;BME280;42848;42.524;12.052;2023-04-24T07:53:23;96054.28;;;14.67;100.00
56944;BME280;42848;42.524;12.052;2023-04-24T07:55:49;96049.94;;;14.85;100.00
56944;BME280;42848;42.524;12.052;2023-04-24T07:58:14;96051.69;;;14.74;100.00
56944;BME280;42848;42.524;12.052;2023-04-24T08:00:40;96052.25;;;14.83;100.00
56944;BME280;42848;42.524;12.052;2023-04-24T08:03:06;96046.38;;;14.62;100.00
56944;BME280;42848;42.524;12.052;2023-04-24T08:05:31;96046.22;;;14.74;100.00
56944;BME280;42848;42.524;12.052;2023-04-24T08:07:58;96052.75;;;14.69;100.00
56944;BME280;42848;42.524;12.052;2023-04-24T08:10:24;96049.78;;;14.78;100.00
56944;BME280;42848;42.524;12.052;2023-04-24T08:12:50;96059.16;;;14.77;100.00
56944;BME280;42848;42.524;12.052;2023-04-24T08:15:16;96054.59;;;15.07;100.00
56944;BME280;42848;42.524;12.052;2023-04-24T08:17:42;96051.56;;;15.13;100.00
56944;BME280;42848;42.524;12.052;2023-04-24T08:20:10;96053.44;;;15.08;100.00
56944;BME280;42848;42.524;12.052;2023-04-24T08:22:42;96050.81;;;14.70;100.00
56944;BME280;42848;42.524;12.052;2023-04-24T08:25:09;96054.50;;;15.00;100.00
56944;BME280;42848;42.524;12.052;2023-04-24T08:27:36;96048.25;;;15.26;100.00
56944;BME280;42848;42.524;12.052;2023-04-24T08:30:05;96046.31;;;15.27;100.00
56944;BME280;42848;42.524;12.052;2023-04-24T08:32:32;96044.97;;;15.40;100.00
56944;BME280;42848;42.524;12.052;2023-04-24T08:34:58;96027.91;;;15.47;100.00
56944;BME280;42848;42.524;12.052;2023-04-24T08:37:26;96030.84;;;15.61;100.00
56944;BME280;42848;42.524;12.052;2023-04-24T08:39:52;96020.25;;;15.59;100.00
56944;BME280;42848;42.524;12.052;2023-04-24T08:42:19;96017.47;;;15.56;100.00
56944;BME280;42848;42.524;12.052;2023-04-24T08:44:45;96028.88;;;15.35;100.00
56944;BME280;42848;42.524;12.052;2023-04-24T08:47:11;96029.50;;;15.51;100.00
56944;BME280;42848;42.524;12.052;2023-04-24T08:49:38;96020.78;;;15.42;100.00
56944;BME280;42848;42.524;12.052;2023-04-24T08:52:07;96030.47;;;15.62;100.00
56944;BME280;42848;42.524;12.052;2023-04-24T08:54:34;96035.72;;;15.48;100.00
56944;BME280;42848;42.524;12.052;2023-04-24T08:57:01;96032.25;;;15.51;100.00
56944;BME280;42848;42.524;12.052;2023-04-24T08:59:32;96029.47;;;16.04;100.00
56944;BME280;42848;42.524;12.052;2023-04-24T09:01:59;96038.63;;;16.15;100.00
56944;BME280;42848;42.524;12.052;2023-04-24T09:04:25;96039.13;;;15.64;100.00
56944;BME280;42848;42.524;12.052;2023-04-24T09:06:55;96042.28;;;15.97;100.00
56944;BME280;42848;42.524;12.052;2023-04-24T09:09:22;96047.41;;;15.72;100.00
56944;BME280;42848;42.524;12.052;2023-04-24T09:11:49;96041.13;;;15.68;100.00
56944;BME280;42848;42.524;12.052;2023-04-24T09:14:16;96039.09;;;16.21;100.00
56944;BME280;42848;42.524;12.052;2023-04-24T09:16:42;96040.13;;;16.43;100.00
56944;BME280;42848;42.524;12.052;2023-04-24T09:19:08;96040.16;;;16.13;100.00
56944;BME280;42848;42.524;12.052;2023-04-24T09:21:35;96042.19;;;15.89;100.00
56944;BME280;42848;42.524;12.052;2023-04-24T09:24:06;96036.47;;;15.72;100.00
56944;BME280;42848;42.524;12.052;2023-04-24T09:26:35;96035.75;;;15.75;100.00
56944;BME280;42848;42.524;12.052;2023-04-24T09:29:03;96033.75;;;16.02;100.00
56944;BME280;42848;42.524;12.052;2023-04-24T09:31:29;96029.00;;;16.29;100.00
56944;BME280;42848;42.524;12.052;2023-04-24T09:33:57;96027.78;;;16.26;100.00
56944;BME280;42848;42.524;12.052;2023-04-24T09:36:31;96037.28;;;16.36;100.00
56944;BME280;42848;42.524;12.052;2023-04-24T09:39:02;96037.28;;;16.36;100.00
56944;BME280;42848;42.524;12.052;2023-04-24T09:41:28;96040.97;;;16.17;100.00
56944;BME280;42848;42.524;12.052;2023-04-24T09:43:55;96042.34;;;16.00;100.00
56944;BME280;42848;42.524;12.052;2023-04-24T09:46:21;96023.59;;;16.02;100.00
56944;BME280;42848;42.524;12.052;2023-04-24T09:48:54;96035.72;;;16.35;100.00
56944;BME280;42848;42.524;12.052;2023-04-24T09:51:33;96031.56;;;16.48;100.00
56944;BME280;42848;42.524;12.052;2023-04-24T09:54:00;96018.06;;;16.29;100.00
56944;BME280;42848;42.524;12.052;2023-04-24T09:56:26;96005.09;;;16.26;100.00
56944;BME280;42848;42.524;12.052;2023-04-24T09:58:52;96010.56;;;16.63;100.00
56944;BME280;42848;42.524;12.052;2023-04-24T10:01:30;96000.28;;;16.49;100.00
56944;BME280;42848;42.524;12.052;2023-04-24T10:03:56;96011.53;;;16.40;100.00
56944;BME280;42848;42.524;12.052;2023-04-24T10:06:22;96008.41;;;16.42;100.00
56944;BME280;42848;42.524;12.052;2023-04-24T10:08:48;96003.91;;;16.60;100.00
56944;BME280;42848;42.524;12.052;2023-04-24T10:11:16;96003.34;;;16.81;100.00
56944;BME280;42848;42.524;12.052;2023-04-24T10:13:43;95997.22;;;16.95;100.00
56944;BME280;42848;42.524;12.052;2023-04-24T10:16:09;96002.81;;;17.09;100.00
56944;BME280;42848;42.524;12.052;2023-04-24T10:18:35;95992.75;;;17.27;100.00
56944;BME280;42848;42.524;12.052;2023-04-24T10:21:01;95999.59;;;16.59;100.00
56944;BME280;42848;42.524;12.052;2023-04-24T10:23:28;95997.91;;;16.85;100.00
56944;BME280;42848;42.524;12.052;2023-04-24T10:25:55;95991.50;;;17.14;100.00
56944;BME280;42848;42.524;12.052;2023-04-24T10:28:24;96006.31;;;16.65;100.00
56944;BME280;42848;42.524;12.052;2023-04-24T10:30:50;95996.78;;;16.52;100.00
56944;BME280;42848;42.524;12.052;2023-04-24T10:33:21;95982.75;;;16.98;100.00
56944;BME280;42848;42.524;12.052;2023-04-24T10:35:50;95999.59;;;17.00;100.00
56944;BME280;42848;42.524;12.052;2023-04-24T10:38:24;95988.69;;;17.07;100.00
56944;BME280;42848;42.524;12.052;2023-04-24T10:40:57;95984.06;;;17.15;100.00
56944;BME280;42848;42.524;12.052;2023-04-24T10:43:33;95987.91;;;17.06;100.00
56944;BME280;42848;42.524;12.052;2023-04-24T10:46:04;95987.25;;;17.20;100.00
56944;BME280;42848;42.524;12.052;2023-04-24T10:48:30;95985.66;;;17.19;100.00
56944;BME280;42848;42.524;12.052;2023-04-24T10:50:56;95994.69;;;17.23;100.00
56944;BME280;42848;42.524;12.052;2023-04-24T10:53:24;95983.09;;;16.93;100.00
56944;BME280;42848;42.524;12.052;2023-04-24T10:56:08;95979.81;;;17.24;100.00
56944;BME280;42848;42.524;12.052;2023-04-24T10:58:43;95985.66;;;17.19;100.00
56944;BME280;42848;42.524;12.052;2023-04-24T11:01:31;95972.16;;;17.51;100.00
56944;BME280;42848;42.524;12.052;2023-04-24T11:04:03;95986.72;;;17.08;100.00
56944;BME280;42848;42.524;12.052;2023-04-24T11:06:32;95991.56;;;16.77;100.00
56944;BME280;42848;42.524;12.052;2023-04-24T11:09:05;95997.19;;;16.54;100.00
56944;BME280;42848;42.524;12.052;2023-04-24T11:11:32;96003.50;;;16.25;100.00
56944;BME280;42848;42.524;12.052;2023-04-24T11:24:32;96011.59;;;16.10;100.00
56944;BME280;42848;42.524;12.052;2023-04-24T11:29:40;96000.56;;;15.73;100.00
56944;BME280;42848;42.524;12.052;2023-04-24T11:32:17;95998.13;;;15.98;100.00
56944;BME280;42848;42.524;12.052;2023-04-24T11:37:19;95985.34;;;15.76;100.00
56944;BME280;42848;42.524;12.052;2023-04-24T11:39:45;95986.09;;;16.06;100.00
56944;BME280;42848;42.524;12.052;2023-04-24T11:42:14;95966.06;;;15.69;100.00
56944;BME280;42848;42.524;12.052;2023-04-24T11:44:41;95986.38;;;15.41;100.00
56944;BME280;42848;42.524;12.052;2023-04-24T11:47:08;95986.38;;;15.68;100.00
56944;BME280;42848;42.524;12.052;2023-04-24T11:49:36;95978.28;;;15.75;100.00
56944;BME280;42848;42.524;12.052;2023-04-24T11:52:03;95991.44;;;15.96;100.00
56944;BME280;42848;42.524;12.052;2023-04-24T11:54:29;95981.94;;;15.86;100.00
56944;BME280;42848;42.524;12.052;2023-04-24T11:56:56;95978.47;;;16.23;100.00
56944;BME280;42848;42.524;12.052;2023-04-24T11:59:21;95986.50;;;16.42;100.00
56944;BME280;42848;42.524;12.052;2023-04-24T12:01:48;95991.94;;;16.38;100.00
56944;BME280;42848;42.524;12.052;2023-04-24T12:04:16;95990.22;;;16.27;100.00
56944;BME280;42848;42.524;12.052;2023-04-24T12:07:04;95982.84;;;16.68;100.00
56944;BME280;42848;42.524;12.052;2023-04-24T12:09:44;95980.91;;;17.13;100.00
56944;BME280;42848;42.524;12.052;2023-04-24T12:12:17;95980.59;;;17.21;100.00
56944;BME280;42848;42.524;12.052;2023-04-24T12:14:58;95982.50;;;17.17;100.00
56944;BME280;42848;42.524;12.052;2023-04-24T12:17:27;95982.69;;;17.46;100.00
56944;BME280;42848;42.524;12.052;2023-04-24T12:19:57;95975.28;;;17.50;100.00
56944;BME280;42848;42.524;12.052;2023-04-24T12:22:24;95983.00;;;17.33;100.00
56944;BME280;42848;42.524;12.052;2023-04-24T12:25:00;95980.81;;;17.02;100.00
56944;BME280;42848;42.524;12.052;2023-04-24T12:27:29;95980.91;;;17.13;100.00
56944;BME280;42848;42.524;12.052;2023-04-24T12:29:59;95980.06;;;17.09;100.00
56944;BME280;42848;42.524;12.052;2023-04-24T12:32:25;95979.09;;;17.31;100.00
56944;BME280;42848;42.524;12.052;2023-04-24T12:34:55;95978.56;;;17.11;100.00
56944;BME280;42848;42.524;12.052;2023-04-24T12:37:26;95977.16;;;16.84;100.00
56944;BME280;42848;42.524;12.052;2023-04-24T12:42:33;95971.25;;;17.33;100.00
56944;BME280;42848;42.524;12.052;2023-04-24T12:45:03;95966.25;;;17.49;100.00
56944;BME280;42848;42.524;12.052;2023-04-24T12:47:32;95974.38;;;17.94;100.00
56944;BME280;42848;42.524;12.052;2023-04-24T12:49:58;95968.72;;;17.65;100.00
56944;BME280;42848;42.524;12.052;2023-04-24T12:52:25;95986.81;;;17.73;100.00
56944;BME280;42848;42.524;12.052;2023-04-24T12:54:55;95976.69;;;17.84;100.00
56944;BME280;42848;42.524;12.052;2023-04-24T12:57:22;95978.06;;;17.57;100.00